^^
Your Local Weather - Clay, NY Station Historical Data
Daily Summary for October 2, 2017 Units:  English    Metric   Both
« Previous Day
Next Day »
Daily Weekly Monthly Yearly Custom
  High: Low: Average:
Temperature: 67.8 °F 37.0 °F 50.4 °F
Dew Point: 49.0 °F 34.3 °F 41.6 °F
Humidity: 95% 30% 76%
Wind Speed: 3.0mph 0.0mph 0.7mph
Wind Gust: 6.0mph - -
Wind- - East
Pressure: 30.42 in 30.32 in -
Precipitation: 0.00 in    
Historical Graphs
 
 
Tabular Data for October 2, 2017
Time Temperature Dew Point Pressure Wind Wind Speed Wind Gust Humidity Rainfall Rate (Hourly) solar
00:04 42.2 °F 40.0 °F 30.32 in Calm     92% 0.00 in 0 W/m2
00:10 42.3 °F 40.1 °F 30.32 in Calm     92% 0.00 in 0 W/m2
00:16 42.2 °F 40.0 °F 30.32 in Calm     92% 0.00 in 0 W/m2
00:22 42.1 °F 39.9 °F 30.32 in Calm     92% 0.00 in 0 W/m2
00:28 42.0 °F 39.8 °F 30.32 in Calm     92% 0.00 in 0 W/m2
00:34 42.0 °F 39.8 °F 30.32 in Calm     92% 0.00 in 0 W/m2
00:40 41.7 °F 39.5 °F 30.32 in Calm     92% 0.00 in 0 W/m2
00:46 41.6 °F 39.4 °F 30.32 in Calm     92% 0.00 in 0 W/m2
00:52 41.3 °F 39.2 °F 30.32 in Calm     92% 0.00 in 0 W/m2
00:58 41.2 °F 39.3 °F 30.32 in Calm     93% 0.00 in 0 W/m2
01:04 40.9 °F 38.8 °F 30.32 in Calm     92% 0.00 in 0 W/m2
01:10 40.7 °F 38.8 °F 30.32 in Calm     93% 0.00 in 0 W/m2
01:16 40.6 °F 38.7 °F 30.33 in Calm     93% 0.00 in 0 W/m2
01:20 40.7 °F 38.8 °F 30.33 in Calm     93% 0.00 in 0 W/m2
01:26 40.7 °F 38.8 °F 30.33 in Calm     93% 0.00 in 0 W/m2
01:32 40.4 °F 38.5 °F 30.33 in Calm     93% 0.00 in 0 W/m2
01:38 40.3 °F 38.4 °F 30.34 in Calm     93% 0.00 in 0 W/m2
01:44 40.1 °F 38.2 °F 30.33 in Calm     93% 0.00 in 0 W/m2
01:50 39.9 °F 38.0 °F 30.34 in Calm     93% 0.00 in 0 W/m2
01:56 39.7 °F 37.8 °F 30.34 in Calm     93% 0.00 in 0 W/m2
02:02 39.5 °F 37.6 °F 30.34 in Calm     93% 0.00 in 0 W/m2
02:08 39.4 °F 37.5 °F 30.34 in Calm     93% 0.00 in 0 W/m2
02:14 39.2 °F 37.3 °F 30.34 in Calm     93% 0.00 in 0 W/m2
02:20 38.9 °F 37.0 °F 30.34 in Calm     93% 0.00 in 0 W/m2
02:26 38.7 °F 36.9 °F 30.33 in Calm     93% 0.00 in 0 W/m2
02:32 38.6 °F 36.8 °F 30.33 in Calm     93% 0.00 in 0 W/m2
02:38 38.4 °F 36.6 °F 30.33 in Calm     93% 0.00 in 0 W/m2
02:44 38.3 °F 36.5 °F 30.33 in Calm     93% 0.00 in 0 W/m2
02:50 38.4 °F 36.6 °F 30.33 in Calm     93% 0.00 in 0 W/m2
02:56 38.4 °F 36.6 °F 30.33 in Calm     93% 0.00 in 0 W/m2
03:02 38.3 °F 36.5 °F 30.33 in Calm     93% 0.00 in 0 W/m2
03:08 38.4 °F 36.6 °F 30.33 in Calm     93% 0.00 in 0 W/m2
03:14 38.3 °F 36.5 °F 30.33 in Calm     93% 0.00 in 0 W/m2
03:20 38.2 °F 36.4 °F 30.33 in Calm     93% 0.00 in 0 W/m2
03:26 38.2 °F 36.4 °F 30.33 in Calm     93% 0.00 in 0 W/m2
03:32 38.1 °F 36.3 °F 30.33 in Calm     93% 0.00 in 0 W/m2
03:38 38.1 °F 36.3 °F 30.33 in Calm     93% 0.00 in 0 W/m2
03:44 38.2 °F 36.4 °F 30.33 in Calm     93% 0.00 in 0 W/m2
03:50 38.4 °F 36.6 °F 30.33 in Calm     93% 0.00 in 0 W/m2
03:56 38.6 °F 36.8 °F 30.33 in Calm     93% 0.00 in 0 W/m2
04:02 39.1 °F 37.2 °F 30.33 in Calm     93% 0.00 in 0 W/m2
04:08 39.1 °F 37.2 °F 30.33 in Calm     93% 0.00 in 0 W/m2
04:14 39.0 °F 37.1 °F 30.33 in Calm     93% 0.00 in 0 W/m2
04:20 38.8 °F 36.9 °F 30.34 in Calm     93% 0.00 in 0 W/m2
04:26 38.7 °F 37.1 °F 30.34 in Calm     94% 0.00 in 0 W/m2
04:32 38.6 °F 36.8 °F 30.34 in Calm     93% 0.00 in 0 W/m2
04:38 38.5 °F 36.7 °F 30.34 in Calm     93% 0.00 in 0 W/m2
04:44 38.4 °F 36.6 °F 30.34 in Calm     93% 0.00 in 0 W/m2
04:50 38.1 °F 36.3 °F 30.34 in Calm     93% 0.00 in 0 W/m2
04:56 38.2 °F 36.6 °F 30.34 in Calm     94% 0.00 in 0 W/m2
05:03 38.3 °F 36.7 °F 30.35 in Calm     94% 0.00 in 0 W/m2
05:08 38.1 °F 36.5 °F 30.35 in Calm     94% 0.00 in 0 W/m2
05:14 37.9 °F 36.1 °F 30.35 in Calm     93% 0.00 in 0 W/m2
05:20 37.8 °F 36.0 °F 30.35 in Calm     93% 0.00 in 0 W/m2
05:26 37.7 °F 36.1 °F 30.35 in Calm     94% 0.00 in 0 W/m2
05:32 37.6 °F 36.0 °F 30.35 in Calm     94% 0.00 in 0 W/m2
05:38 37.5 °F 35.9 °F 30.35 in Calm     94% 0.00 in 0 W/m2
05:44 37.5 °F 35.7 °F 30.36 in Calm     93% 0.00 in 0 W/m2
05:50 37.4 °F 35.8 °F 30.36 in Calm     94% 0.00 in 0 W/m2
05:56 37.3 °F 35.7 °F 30.36 in Calm     94% 0.00 in 0 W/m2
06:02 37.2 °F 35.6 °F 30.36 in Calm     94% 0.00 in 0 W/m2
06:08 37.1 °F 35.5 °F 30.37 in Calm     94% 0.00 in 0 W/m2
06:14 37.1 °F 35.5 °F 30.37 in Calm     94% 0.00 in 0 W/m2
06:20 37.1 °F 35.5 °F 30.37 in Calm     94% 0.00 in 0 W/m2
06:26 37.0 °F 35.4 °F 30.37 in Calm     94% 0.00 in 0 W/m2
06:32 37.2 °F 35.6 °F 30.37 in Calm     94% 0.00 in 0 W/m2
06:38 37.3 °F 35.7 °F 30.37 in Calm     94% 0.00 in 0 W/m2
06:44 37.8 °F 36.2 °F 30.37 in Calm     94% 0.00 in 0 W/m2
06:50 37.8 °F 36.2 °F 30.38 in Calm     94% 0.00 in 0 W/m2
06:56 37.7 °F 36.1 °F 30.38 in Calm     94% 0.00 in 0 W/m2
07:02 37.6 °F 36.0 °F 30.38 in Calm     94% 0.00 in 0 W/m2
07:08 37.6 °F 36.0 °F 30.38 in Calm     94% 0.00 in 5 W/m2
07:14 38.0 °F 36.4 °F 30.38 in Calm     94% 0.00 in 7 W/m2
07:20 38.2 °F 36.6 °F 30.38 in Calm     94% 0.00 in 11 W/m2
07:26 38.8 °F 37.2 °F 30.38 in Calm     94% 0.00 in 11 W/m2
07:32 39.6 °F 38.0 °F 30.38 in Calm     94% 0.00 in 14 W/m2
07:38 40.1 °F 38.5 °F 30.38 in Calm     94% 0.00 in 19 W/m2
07:44 40.5 °F 38.9 °F 30.39 in Calm     94% 0.00 in 26 W/m2
07:50 41.6 °F 40.0 °F 30.39 in Calm     94% 0.00 in 37 W/m2
07:56 42.1 °F 40.8 °F 30.39 in Calm   1.0 mph 95% 0.00 in 42 W/m2
08:02 42.4 °F 41.1 °F 30.40 in Calm     95% 0.00 in 54 W/m2
08:08 42.6 °F 41.0 °F 30.40 in Calm     94% 0.00 in 62 W/m2
08:14 42.7 °F 41.1 °F 30.40 in Calm     94% 0.00 in 40 W/m2
08:20 42.9 °F 41.6 °F 30.40 in Calm     95% 0.00 in 105 W/m2
08:26 43.2 °F 41.6 °F 30.40 in Calm     94% 0.00 in 53 W/m2
08:32 43.9 °F 42.6 °F 30.40 in Calm   4.0 mph 95% 0.00 in 62 W/m2
08:38 44.3 °F 43.0 °F 30.40 in ENE 1.0 mph 4.0 mph 95% 0.00 in 49 W/m2
08:44 44.9 °F 43.6 °F 30.40 in ENE 1.0 mph 3.0 mph 95% 0.00 in 104 W/m2
08:50 45.1 °F 43.8 °F 30.40 in ENE 1.0 mph 1.0 mph 95% 0.00 in 139 W/m2
08:56 45.4 °F 44.1 °F 30.41 in ENE 1.0 mph 2.0 mph 95% 0.00 in 76 W/m2
09:02 45.7 °F 44.4 °F 30.41 in ENE 1.0 mph 2.0 mph 95% 0.00 in 49 W/m2
09:08 46.1 °F 44.7 °F 30.41 in ENE 1.0 mph 2.0 mph 95% 0.00 in 107 W/m2
09:14 46.3 °F 44.9 °F 30.41 in ENE 1.0 mph 1.0 mph 95% 0.00 in 62 W/m2
09:20 46.9 °F 45.5 °F 30.41 in ENE 1.0 mph 1.0 mph 95% 0.00 in 58 W/m2
09:26 47.7 °F 46.3 °F 30.41 in ENE 1.0 mph 1.0 mph 95% 0.00 in 251 W/m2
09:32 47.8 °F 46.2 °F 30.41 in ENE 1.0 mph 2.0 mph 94% 0.00 in 239 W/m2
09:38 48.5 °F 46.9 °F 30.41 in ENE 1.0 mph 2.0 mph 94% 0.00 in 410 W/m2
09:44 49.4 °F 47.7 °F 30.41 in SE 1.0 mph 3.0 mph 94% 0.00 in 424 W/m2
09:50 50.1 °F 47.3 °F 30.41 in ENE 2.0 mph 2.0 mph 90% 0.00 in 441 W/m2
09:56 51.4 °F 48.0 °F 30.42 in SSE 1.0 mph 2.0 mph 88% 0.00 in 459 W/m2
10:02 51.9 °F 47.2 °F 30.42 in SSE 1.0 mph 1.0 mph 84% 0.00 in 482 W/m2
10:08 52.4 °F 47.1 °F 30.42 in SSE 2.0 mph 2.0 mph 82% 0.00 in 496 W/m2
10:14 53.3 °F 47.9 °F 30.42 in East 1.0 mph 2.0 mph 82% 0.00 in 517 W/m2
10:20 54.2 °F 48.8 °F 30.42 in North 1.0 mph 2.0 mph 82% 0.00 in 548 W/m2
10:26 54.6 °F 48.2 °F 30.42 in ESE 1.0 mph 2.0 mph 79% 0.00 in 564 W/m2
10:32 55.4 °F 49.0 °F 30.42 in SE 1.0 mph 1.0 mph 79% 0.00 in 575 W/m2
10:38 55.4 °F 47.6 °F 30.42 in SE 2.0 mph 3.0 mph 75% 0.00 in 591 W/m2
10:44 55.9 °F 47.7 °F 30.42 in SE 1.0 mph 3.0 mph 74% 0.00 in 606 W/m2
10:50 57.1 °F 47.8 °F 30.42 in SE 1.0 mph 3.0 mph 71% 0.00 in 619 W/m2
10:56 57.0 °F 48.1 °F 30.42 in ESE 2.0 mph 3.0 mph 72% 0.00 in 631 W/m2
11:02 57.5 °F 46.2 °F 30.41 in ENE 1.0 mph 2.0 mph 66% 0.00 in 642 W/m2
11:08 57.8 °F 46.9 °F 30.41 in SSE 2.0 mph 3.0 mph 67% 0.00 in 650 W/m2
11:14 58.7 °F 47.8 °F 30.42 in SSE 2.0 mph 3.0 mph 67% 0.00 in 657 W/m2
11:20 58.9 °F 46.7 °F 30.42 in ENE 2.0 mph 2.0 mph 64% 0.00 in 664 W/m2
11:26 58.9 °F 45.9 °F 30.42 in SSE 2.0 mph 4.0 mph 62% 0.00 in 677 W/m2
11:32 59.7 °F 45.3 °F 30.41 in SSE 2.0 mph 5.0 mph 59% 0.00 in 686 W/m2
11:38 59.9 °F 45.1 °F 30.41 in SE 2.0 mph 5.0 mph 58% 0.00 in 687 W/m2
11:44 59.9 °F 44.6 °F 30.41 in NE 2.0 mph 3.0 mph 57% 0.00 in 698 W/m2
11:50 60.8 °F 46.4 °F 30.41 in ENE 2.0 mph 2.0 mph 59% 0.00 in 707 W/m2
11:56 61.3 °F 45.0 °F 30.41 in NE 2.0 mph 4.0 mph 55% 0.00 in 712 W/m2
12:02 61.5 °F 45.2 °F 30.40 in ESE 2.0 mph 2.0 mph 55% 0.00 in 717 W/m2
12:08 62.4 °F 47.4 °F 30.40 in ENE 2.0 mph 4.0 mph 58% 0.00 in 722 W/m2
12:14 62.7 °F 45.3 °F 30.40 in SSE 2.0 mph 3.0 mph 53% 0.00 in 726 W/m2
12:20 62.9 °F 46.5 °F 30.40 in SE 2.0 mph 6.0 mph 55% 0.00 in 728 W/m2
12:26 63.1 °F 45.7 °F 30.40 in East 3.0 mph 6.0 mph 53% 0.00 in 729 W/m2
12:32 63.1 °F 46.2 °F 30.40 in NNE 3.0 mph 3.0 mph 54% 0.00 in 735 W/m2
12:38 63.6 °F 44.1 °F 30.40 in NE 3.0 mph 4.0 mph 49% 0.00 in 737 W/m2
12:44 63.8 °F 43.2 °F 30.40 in East 3.0 mph 4.0 mph 47% 0.00 in 737 W/m2
12:50 63.4 °F 42.8 °F 30.40 in ENE 2.0 mph 5.0 mph 47% 0.00 in 737 W/m2
12:56 63.5 °F 43.4 °F 30.40 in NE 2.0 mph 5.0 mph 48% 0.00 in 737 W/m2
13:02 64.0 °F 42.8 °F 30.40 in NNE 2.0 mph 2.0 mph 46% 0.00 in 737 W/m2
13:08 64.9 °F 44.7 °F 30.40 in South 2.0 mph 3.0 mph 48% 0.00 in 735 W/m2
13:14 64.4 °F 42.0 °F 30.40 in East 2.0 mph 5.0 mph 44% 0.00 in 731 W/m2
13:20 65.3 °F 45.6 °F 30.40 in SE 2.0 mph 6.0 mph 49% 0.00 in 731 W/m2
13:26 65.1 °F 42.0 °F 30.39 in SE 2.0 mph 6.0 mph 43% 0.00 in 728 W/m2
13:32 65.8 °F 45.6 °F 30.39 in SE 2.0 mph 3.0 mph 48% 0.00 in 726 W/m2
13:38 65.9 °F 42.8 °F 30.39 in SE 2.0 mph 4.0 mph 43% 0.00 in 722 W/m2
13:44 65.6 °F 41.9 °F 30.38 in East 1.0 mph 3.0 mph 42% 0.00 in 719 W/m2
13:50 65.0 °F 45.9 °F 30.38 in NNW 1.0 mph 5.0 mph 50% 0.00 in 714 W/m2
13:56 65.1 °F 45.5 °F 30.38 in NE 3.0 mph 6.0 mph 49% 0.00 in 703 W/m2
14:02 65.2 °F 46.1 °F 30.38 in South 2.0 mph 3.0 mph 50% 0.00 in 698 W/m2
14:08 66.1 °F 45.8 °F 30.38 in NNE 2.0 mph 5.0 mph 48% 0.00 in 691 W/m2
14:14 66.0 °F 48.9 °F 30.38 in SSE 3.0 mph 3.0 mph 54% 0.00 in 684 W/m2
14:20 65.5 °F 44.7 °F 30.37 in SSE 2.0 mph 2.0 mph 47% 0.00 in 675 W/m2
14:26 66.5 °F 45.1 °F 30.37 in NNE 2.0 mph 2.0 mph 46% 0.00 in 668 W/m2
14:32 66.2 °F 45.4 °F 30.38 in East 3.0 mph 3.0 mph 47% 0.00 in 656 W/m2
14:38 66.9 °F 46.0 °F 30.37 in NNE 1.0 mph 3.0 mph 47% 0.00 in 649 W/m2
14:44 66.8 °F 44.8 °F 30.37 in East 1.0 mph 3.0 mph 45% 0.00 in 636 W/m2
14:50 66.3 °F 47.6 °F 30.37 in East 1.0 mph 1.0 mph 51% 0.00 in 629 W/m2
14:56 66.8 °F 45.9 °F 30.36 in ESE 1.0 mph 4.0 mph 47% 0.00 in 619 W/m2
15:02 67.1 °F 47.8 °F 30.36 in North 1.0 mph 3.0 mph 50% 0.00 in 605 W/m2
15:08 67.0 °F 46.7 °F 30.36 in NE 1.0 mph 4.0 mph 48% 0.00 in 592 W/m2
15:14 67.1 °F 43.8 °F 30.37 in ENE 2.0 mph 2.0 mph 43% 0.00 in 580 W/m2
15:20 67.1 °F 43.2 °F 30.37 in North 2.0 mph 3.0 mph 42% 0.00 in 568 W/m2
15:26 66.3 °F 41.9 °F 30.36 in ENE 2.0 mph 3.0 mph 41% 0.00 in 554 W/m2
15:32 66.9 °F 39.8 °F 30.36 in ENE 2.0 mph 4.0 mph 37% 0.00 in 541 W/m2
15:38 66.5 °F 38.0 °F 30.36 in East 2.0 mph 4.0 mph 35% 0.00 in 527 W/m2
15:44 66.9 °F 39.1 °F 30.37 in North 2.0 mph 6.0 mph 36% 0.00 in 515 W/m2
15:50 66.8 °F 34.3 °F 30.37 in North 3.0 mph 3.0 mph 30% 0.00 in 499 W/m2
15:56 66.9 °F 36.1 °F 30.37 in SSE 2.0 mph 4.0 mph 32% 0.00 in 483 W/m2
16:02 67.3 °F 38.0 °F 30.37 in ENE 2.0 mph 4.0 mph 34% 0.00 in 468 W/m2
16:08 67.4 °F 35.7 °F 30.37 in NE 2.0 mph 4.0 mph 31% 0.00 in 452 W/m2
16:14 67.7 °F 36.0 °F 30.37 in NNE 2.0 mph 5.0 mph 31% 0.00 in 438 W/m2
16:20 67.4 °F 35.7 °F 30.37 in NNW 2.0 mph 3.0 mph 31% 0.00 in 420 W/m2
16:26 67.7 °F 36.8 °F 30.37 in NNE 2.0 mph 4.0 mph 32% 0.00 in 404 W/m2
16:32 67.8 °F 39.1 °F 30.36 in ENE 2.0 mph 3.0 mph 35% 0.00 in 385 W/m2
16:38 67.4 °F 36.5 °F 30.36 in NNE 2.0 mph 6.0 mph 32% 0.00 in 367 W/m2
16:44 66.9 °F 38.3 °F 30.36 in NNW 2.0 mph 4.0 mph 35% 0.00 in 350 W/m2
16:50 67.3 °F 38.0 °F 30.36 in North 2.0 mph 2.0 mph 34% 0.00 in 336 W/m2
16:56 66.8 °F 36.8 °F 30.36 in ENE 2.0 mph 2.0 mph 33% 0.00 in 316 W/m2
17:02 66.7 °F 36.7 °F 30.36 in NE 2.0 mph 2.0 mph 33% 0.00 in 294 W/m2
17:08 67.2 °F 37.9 °F 30.36 in ENE 2.0 mph 2.0 mph 34% 0.00 in 276 W/m2
17:14 66.6 °F 38.8 °F 30.37 in ENE 2.0 mph 2.0 mph 36% 0.00 in 258 W/m2
17:20 66.6 °F 39.5 °F 30.37 in ENE 2.0 mph 2.0 mph 37% 0.00 in 237 W/m2
17:26 66.3 °F 40.6 °F 30.37 in ENE 1.0 mph 2.0 mph 39% 0.00 in 216 W/m2
17:32 65.7 °F 42.6 °F 30.37 in ENE 1.0 mph 1.0 mph 43% 0.00 in 192 W/m2
17:38 65.1 °F 40.8 °F 30.36 in ENE 1.0 mph 1.0 mph 41% 0.00 in 163 W/m2
17:44 64.7 °F 41.7 °F 30.36 in ENE 1.0 mph 3.0 mph 43% 0.00 in 104 W/m2
17:50 64.3 °F 44.7 °F 30.37 in ENE 1.0 mph 1.0 mph 49% 0.00 in 26 W/m2
17:56 63.4 °F 45.5 °F 30.37 in Calm   1.0 mph 52% 0.00 in 32 W/m2
18:02 62.0 °F 46.6 °F 30.37 in Calm     57% 0.00 in 21 W/m2
18:08 61.1 °F 47.1 °F 30.37 in Calm     60% 0.00 in 19 W/m2
18:14 60.0 °F 46.5 °F 30.37 in Calm     61% 0.00 in 16 W/m2
18:20 59.3 °F 46.3 °F 30.38 in Calm     62% 0.00 in 12 W/m2
18:26 58.6 °F 46.0 °F 30.38 in Calm     63% 0.00 in 11 W/m2
18:32 57.8 °F 45.7 °F 30.38 in Calm     64% 0.00 in 7 W/m2
18:38 57.0 °F 45.3 °F 30.38 in Calm     65% 0.00 in 5 W/m2
18:44 56.4 °F 44.8 °F 30.38 in Calm     65% 0.00 in 0 W/m2
18:50 56.0 °F 44.8 °F 30.38 in Calm     66% 0.00 in 0 W/m2
18:56 55.5 °F 45.1 °F 30.38 in Calm     68% 0.00 in 0 W/m2
19:02 55.0 °F 45.0 °F 30.38 in Calm     69% 0.00 in 0 W/m2
19:08 54.4 °F 44.8 °F 30.39 in Calm     70% 0.00 in 0 W/m2
19:14 53.8 °F 44.2 °F 30.39 in Calm     70% 0.00 in 0 W/m2
19:20 53.2 °F 44.8 °F 30.39 in Calm     73% 0.00 in 0 W/m2
19:26 52.8 °F 44.7 °F 30.39 in Calm     74% 0.00 in 0 W/m2
19:32 52.4 °F 44.7 °F 30.40 in Calm     75% 0.00 in 0 W/m2
19:38 52.0 °F 45.0 °F 30.40 in Calm     77% 0.00 in 0 W/m2
19:46 51.4 °F 44.4 °F 30.40 in Calm     77% 0.00 in 0 W/m2
19:52 51.0 °F 44.4 °F 30.40 in Calm     78% 0.00 in 0 W/m2
19:58 50.7 °F 44.8 °F 30.40 in Calm     80% 0.00 in 0 W/m2
20:04 50.5 °F 44.9 °F 30.40 in Calm     81% 0.00 in 0 W/m2
20:10 50.2 °F 44.9 °F 30.40 in Calm     82% 0.00 in 0 W/m2
20:16 49.9 °F 44.6 °F 30.40 in Calm     82% 0.00 in 0 W/m2
20:22 49.7 °F 44.7 °F 30.40 in Calm     83% 0.00 in 0 W/m2
20:28 49.4 °F 44.8 °F 30.41 in Calm     84% 0.00 in 0 W/m2
20:34 49.1 °F 44.5 °F 30.41 in Calm     84% 0.00 in 0 W/m2
20:40 48.8 °F 44.2 °F 30.41 in Calm     84% 0.00 in 0 W/m2
20:46 48.5 °F 43.9 °F 30.41 in Calm     84% 0.00 in 0 W/m2
20:52 48.2 °F 43.9 °F 30.41 in Calm     85% 0.00 in 0 W/m2
21:00 48.0 °F 44.0 °F 30.41 in Calm     86% 0.00 in 0 W/m2
21:06 47.9 °F 43.9 °F 30.41 in Calm     86% 0.00 in 0 W/m2
21:12 47.8 °F 44.1 °F 30.41 in Calm     87% 0.00 in 0 W/m2
21:18 47.7 °F 44.0 °F 30.41 in Calm     87% 0.00 in 0 W/m2
21:24 47.5 °F 43.8 °F 30.41 in Calm     87% 0.00 in 0 W/m2
21:30 47.4 °F 44.0 °F 30.41 in Calm     88% 0.00 in 0 W/m2
21:36 47.2 °F 43.8 °F 30.41 in Calm     88% 0.00 in 0 W/m2
21:42 46.9 °F 43.5 °F 30.41 in Calm     88% 0.00 in 0 W/m2
21:48 46.8 °F 43.4 °F 30.41 in Calm     88% 0.00 in 0 W/m2
21:54 46.7 °F 43.6 °F 30.41 in Calm     89% 0.00 in 0 W/m2
22:00 46.6 °F 43.5 °F 30.41 in Calm     89% 0.00 in 0 W/m2
22:08 46.3 °F 43.2 °F 30.41 in Calm     89% 0.00 in 0 W/m2
22:14 46.1 °F 43.0 °F 30.41 in Calm     89% 0.00 in 0 W/m2
22:20 45.8 °F 42.7 °F 30.42 in Calm     89% 0.00 in 0 W/m2
22:26 45.8 °F 43.0 °F 30.42 in Calm     90% 0.00 in 0 W/m2
22:32 46.1 °F 43.3 °F 30.42 in Calm     90% 0.00 in 0 W/m2
22:38 46.1 °F 43.6 °F 30.42 in Calm     91% 0.00 in 0 W/m2
22:44 45.9 °F 43.4 °F 30.42 in Calm     91% 0.00 in 0 W/m2
22:50 45.5 °F 42.7 °F 30.42 in Calm     90% 0.00 in 0 W/m2
22:56 45.3 °F 42.8 °F 30.42 in Calm     91% 0.00 in 0 W/m2
23:02 45.1 °F 42.6 °F 30.42 in Calm     91% 0.00 in 0 W/m2
23:08 44.9 °F 42.4 °F 30.42 in Calm     91% 0.00 in 0 W/m2
23:22 44.8 °F 42.3 °F 30.41 in Calm     91% 0.00 in 0 W/m2
23:24 44.8 °F 42.3 °F 30.42 in Calm     91% 0.00 in 0 W/m2
23:28 44.7 °F 42.2 °F 30.42 in Calm     91% 0.00 in 0 W/m2
23:30 44.7 °F 42.2 °F 30.42 in Calm     91% 0.00 in 0 W/m2
23:36 44.7 °F 42.2 °F 30.42 in Calm     91% 0.00 in 0 W/m2
23:40 44.7 °F 42.2 °F 30.42 in Calm     91% 0.00 in 0 W/m2
23:46 44.6 °F 42.4 °F 30.42 in Calm     92% 0.00 in 0 W/m2
23:52 44.5 °F 42.3 °F 30.42 in Calm     92% 0.00 in 0 W/m2
23:58 44.8 °F 42.6 °F 30.41 in Calm     92% 0.00 in 0 W/m2
Country Meadow, Clay, NY, USA
Compliments of Weather Underground - 2 mb